sensor_id;sensor_type;location;lat;lon;timestamp;P1;durP1;ratioP1;P2;durP2;ratioP2
10110;SDS011;5095;49.796;9.934;2023-06-10T00:01:17;7.40;;;5.40;;
10110;SDS011;5095;49.796;9.934;2023-06-10T00:03:43;7.80;;;5.60;;
10110;SDS011;5095;49.796;9.934;2023-06-10T00:06:09;6.63;;;5.57;;
10110;SDS011;5095;49.796;9.934;2023-06-10T00:08:36;6.73;;;5.33;;
10110;SDS011;5095;49.796;9.934;2023-06-10T00:11:02;7.37;;;5.40;;
10110;SDS011;5095;49.796;9.934;2023-06-10T00:13:29;7.63;;;6.10;;
10110;SDS011;5095;49.796;9.934;2023-06-10T00:15:55;7.43;;;5.70;;
10110;SDS011;5095;49.796;9.934;2023-06-10T00:18:21;8.00;;;5.60;;
10110;SDS011;5095;49.796;9.934;2023-06-10T00:20:47;7.03;;;5.60;;
10110;SDS011;5095;49.796;9.934;2023-06-10T00:23:18;7.60;;;5.53;;
10110;SDS011;5095;49.796;9.934;2023-06-10T00:25:44;8.00;;;6.00;;
10110;SDS011;5095;49.796;9.934;2023-06-10T00:28:10;10.67;;;6.27;;
10110;SDS011;5095;49.796;9.934;2023-06-10T00:30:36;6.53;;;5.40;;
10110;SDS011;5095;49.796;9.934;2023-06-10T00:33:02;7.80;;;6.10;;
10110;SDS011;5095;49.796;9.934;2023-06-10T00:35:28;7.87;;;5.77;;
10110;SDS011;5095;49.796;9.934;2023-06-10T00:37:54;8.20;;;6.23;;
10110;SDS011;5095;49.796;9.934;2023-06-10T00:40:20;8.50;;;5.93;;
10110;SDS011;5095;49.796;9.934;2023-06-10T00:42:46;7.30;;;5.70;;
10110;SDS011;5095;49.796;9.934;2023-06-10T00:45:12;7.57;;;6.30;;
10110;SDS011;5095;49.796;9.934;2023-06-10T00:47:38;12.00;;;6.13;;
10110;SDS011;5095;49.796;9.934;2023-06-10T00:50:05;7.10;;;5.87;;
10110;SDS011;5095;49.796;9.934;2023-06-10T00:52:31;8.87;;;5.90;;
10110;SDS011;5095;49.796;9.934;2023-06-10T00:54:57;7.33;;;6.00;;
10110;SDS011;5095;49.796;9.934;2023-06-10T00:57:24;7.80;;;5.70;;
10110;SDS011;5095;49.796;9.934;2023-06-10T00:59:51;7.27;;;5.47;;
10110;SDS011;5095;49.796;9.934;2023-06-10T01:02:17;6.90;;;5.97;;
10110;SDS011;5095;49.796;9.934;2023-06-10T01:04:43;9.33;;;5.53;;
10110;SDS011;5095;49.796;9.934;2023-06-10T01:12:24;8.40;;;5.97;;
10110;SDS011;5095;49.796;9.934;2023-06-10T01:14:52;8.60;;;6.23;;
10110;SDS011;5095;49.796;9.934;2023-06-10T01:17:19;9.70;;;6.03;;
10110;SDS011;5095;49.796;9.934;2023-06-10T01:19:52;9.97;;;6.33;;
10110;SDS011;5095;49.796;9.934;2023-06-10T01:22:19;7.40;;;5.97;;
10110;SDS011;5095;49.796;9.934;2023-06-10T01:24:47;9.10;;;6.23;;
10110;SDS011;5095;49.796;9.934;2023-06-10T01:27:15;7.77;;;5.80;;
10110;SDS011;5095;49.796;9.934;2023-06-10T01:29:43;8.13;;;5.80;;
10110;SDS011;5095;49.796;9.934;2023-06-10T01:32:15;10.63;;;6.20;;
10110;SDS011;5095;49.796;9.934;2023-06-10T01:34:42;8.53;;;5.73;;
10110;SDS011;5095;49.796;9.934;2023-06-10T01:37:11;6.67;;;5.53;;
10110;SDS011;5095;49.796;9.934;2023-06-10T01:39:38;8.00;;;5.50;;
10110;SDS011;5095;49.796;9.934;2023-06-10T01:42:05;8.07;;;6.27;;
10110;SDS011;5095;49.796;9.934;2023-06-10T01:44:31;8.13;;;5.87;;
10110;SDS011;5095;49.796;9.934;2023-06-10T01:46:57;9.50;;;5.83;;
10110;SDS011;5095;49.796;9.934;2023-06-10T01:49:23;41.50;;;27.57;;
10110;SDS011;5095;49.796;9.934;2023-06-10T01:51:51;18.03;;;12.47;;
10110;SDS011;5095;49.796;9.934;2023-06-10T01:54:17;8.07;;;6.47;;
10110;SDS011;5095;49.796;9.934;2023-06-10T01:56:43;8.23;;;6.47;;
10110;SDS011;5095;49.796;9.934;2023-06-10T01:59:09;9.63;;;6.03;;
10110;SDS011;5095;49.796;9.934;2023-06-10T02:01:35;8.83;;;6.13;;
10110;SDS011;5095;49.796;9.934;2023-06-10T02:04:01;7.10;;;5.90;;
10110;SDS011;5095;49.796;9.934;2023-06-10T02:06:27;7.77;;;6.27;;
10110;SDS011;5095;49.796;9.934;2023-06-10T02:08:53;9.60;;;6.03;;
10110;SDS011;5095;49.796;9.934;2023-06-10T02:11:19;10.43;;;6.13;;
10110;SDS011;5095;49.796;9.934;2023-06-10T02:13:45;7.93;;;6.57;;
10110;SDS011;5095;49.796;9.934;2023-06-10T02:16:11;9.33;;;5.67;;
10110;SDS011;5095;49.796;9.934;2023-06-10T02:18:38;6.70;;;5.60;;
10110;SDS011;5095;49.796;9.934;2023-06-10T02:21:05;8.33;;;6.07;;
10110;SDS011;5095;49.796;9.934;2023-06-10T02:23:32;8.60;;;6.60;;
10110;SDS011;5095;49.796;9.934;2023-06-10T02:25:58;8.90;;;6.60;;
10110;SDS011;5095;49.796;9.934;2023-06-10T02:28:24;7.90;;;5.97;;
10110;SDS011;5095;49.796;9.934;2023-06-10T02:30:51;7.00;;;5.80;;
10110;SDS011;5095;49.796;9.934;2023-06-10T02:33:17;7.03;;;5.73;;
10110;SDS011;5095;49.796;9.934;2023-06-10T02:35:43;8.30;;;6.40;;
10110;SDS011;5095;49.796;9.934;2023-06-10T02:38:09;7.40;;;6.37;;
10110;SDS011;5095;49.796;9.934;2023-06-10T02:40:35;7.10;;;6.17;;
10110;SDS011;5095;49.796;9.934;2023-06-10T02:43:01;8.07;;;6.13;;
10110;SDS011;5095;49.796;9.934;2023-06-10T02:45:27;9.87;;;6.57;;
10110;SDS011;5095;49.796;9.934;2023-06-10T02:47:53;8.80;;;5.90;;
10110;SDS011;5095;49.796;9.934;2023-06-10T02:50:19;8.10;;;6.40;;
10110;SDS011;5095;49.796;9.934;2023-06-10T02:52:45;10.20;;;6.73;;
10110;SDS011;5095;49.796;9.934;2023-06-10T02:55:11;8.63;;;6.57;;
10110;SDS011;5095;49.796;9.934;2023-06-10T02:57:37;7.63;;;6.47;;
10110;SDS011;5095;49.796;9.934;2023-06-10T03:00:03;10.73;;;6.73;;
10110;SDS011;5095;49.796;9.934;2023-06-10T03:02:34;8.27;;;6.37;;
10110;SDS011;5095;49.796;9.934;2023-06-10T03:05:03;13.23;;;6.53;;
10110;SDS011;5095;49.796;9.934;2023-06-10T03:07:30;8.77;;;6.57;;
10110;SDS011;5095;49.796;9.934;2023-06-10T03:09:57;9.63;;;6.47;;
10110;SDS011;5095;49.796;9.934;2023-06-10T03:12:23;8.63;;;6.33;;
10110;SDS011;5095;49.796;9.934;2023-06-10T03:14:48;9.07;;;7.03;;
10110;SDS011;5095;49.796;9.934;2023-06-10T03:17:15;8.23;;;7.20;;
10110;SDS011;5095;49.796;9.934;2023-06-10T03:19:40;8.40;;;6.90;;
10110;SDS011;5095;49.796;9.934;2023-06-10T03:22:07;9.63;;;7.40;;
10110;SDS011;5095;49.796;9.934;2023-06-10T03:24:34;8.67;;;6.60;;
10110;SDS011;5095;49.796;9.934;2023-06-10T03:27:01;8.10;;;6.37;;
10110;SDS011;5095;49.796;9.934;2023-06-10T03:29:27;8.80;;;6.60;;
10110;SDS011;5095;49.796;9.934;2023-06-10T03:31:53;9.07;;;6.60;;
10110;SDS011;5095;49.796;9.934;2023-06-10T03:34:19;7.93;;;6.53;;
10110;SDS011;5095;49.796;9.934;2023-06-10T03:36:45;10.03;;;7.20;;
10110;SDS011;5095;49.796;9.934;2023-06-10T03:39:11;17.97;;;7.27;;
10110;SDS011;5095;49.796;9.934;2023-06-10T03:41:37;10.03;;;7.30;;
10110;SDS011;5095;49.796;9.934;2023-06-10T03:44:03;8.97;;;6.40;;
10110;SDS011;5095;49.796;9.934;2023-06-10T03:46:29;10.40;;;6.57;;
10110;SDS011;5095;49.796;9.934;2023-06-10T03:48:55;9.10;;;7.30;;
10110;SDS011;5095;49.796;9.934;2023-06-10T03:51:21;8.13;;;6.80;;
10110;SDS011;5095;49.796;9.934;2023-06-10T03:53:47;8.70;;;7.03;;
10110;SDS011;5095;49.796;9.934;2023-06-10T03:56:13;7.53;;;6.50;;
10110;SDS011;5095;49.796;9.934;2023-06-10T03:58:39;8.53;;;7.30;;
10110;SDS011;5095;49.796;9.934;2023-06-10T04:01:05;8.00;;;6.37;;
10110;SDS011;5095;49.796;9.934;2023-06-10T04:03:32;8.47;;;6.47;;
10110;SDS011;5095;49.796;9.934;2023-06-10T04:05:58;8.40;;;6.77;;
10110;SDS011;5095;49.796;9.934;2023-06-10T04:08:24;8.30;;;6.57;;
10110;SDS011;5095;49.796;9.934;2023-06-10T04:10:53;8.53;;;7.00;;
10110;SDS011;5095;49.796;9.934;2023-06-10T04:13:19;8.67;;;6.67;;
10110;SDS011;5095;49.796;9.934;2023-06-10T04:15:45;9.23;;;6.57;;
10110;SDS011;5095;49.796;9.934;2023-06-10T04:18:11;9.97;;;6.67;;
10110;SDS011;5095;49.796;9.934;2023-06-10T04:20:37;7.03;;;5.63;;
10110;SDS011;5095;49.796;9.934;2023-06-10T04:23:03;10.37;;;6.47;;
10110;SDS011;5095;49.796;9.934;2023-06-10T04:25:29;9.43;;;6.07;;
10110;SDS011;5095;49.796;9.934;2023-06-10T04:27:55;7.67;;;6.67;;
10110;SDS011;5095;49.796;9.934;2023-06-10T04:30:21;8.50;;;6.67;;
10110;SDS011;5095;49.796;9.934;2023-06-10T04:32:47;11.57;;;6.30;;
10110;SDS011;5095;49.796;9.934;2023-06-10T04:35:15;8.67;;;6.43;;
10110;SDS011;5095;49.796;9.934;2023-06-10T04:37:41;9.83;;;6.97;;
10110;SDS011;5095;49.796;9.934;2023-06-10T04:40:08;9.27;;;6.93;;
10110;SDS011;5095;49.796;9.934;2023-06-10T04:42:35;8.20;;;6.57;;
10110;SDS011;5095;49.796;9.934;2023-06-10T04:45:01;9.43;;;6.50;;
10110;SDS011;5095;49.796;9.934;2023-06-10T04:47:28;9.37;;;6.93;;
10110;SDS011;5095;49.796;9.934;2023-06-10T04:49:58;8.93;;;6.60;;
10110;SDS011;5095;49.796;9.934;2023-06-10T04:52:24;10.43;;;6.77;;
10110;SDS011;5095;49.796;9.934;2023-06-10T04:54:50;9.70;;;6.60;;
10110;SDS011;5095;49.796;9.934;2023-06-10T04:57:16;7.50;;;6.67;;
10110;SDS011;5095;49.796;9.934;2023-06-10T04:59:42;10.40;;;6.80;;
10110;SDS011;5095;49.796;9.934;2023-06-10T05:02:08;7.10;;;6.40;;
10110;SDS011;5095;49.796;9.934;2023-06-10T05:04:34;7.73;;;6.17;;
10110;SDS011;5095;49.796;9.934;2023-06-10T05:07:00;7.93;;;6.47;;
10110;SDS011;5095;49.796;9.934;2023-06-10T05:09:26;9.27;;;6.03;;
10110;SDS011;5095;49.796;9.934;2023-06-10T05:11:52;7.17;;;6.40;;
10110;SDS011;5095;49.796;9.934;2023-06-10T05:14:19;7.57;;;6.20;;
10110;SDS011;5095;49.796;9.934;2023-06-10T05:16:46;8.87;;;6.10;;
10110;SDS011;5095;49.796;9.934;2023-06-10T05:19:12;10.47;;;6.10;;
10110;SDS011;5095;49.796;9.934;2023-06-10T05:21:38;7.87;;;5.90;;
10110;SDS011;5095;49.796;9.934;2023-06-10T05:24:04;9.63;;;6.50;;
10110;SDS011;5095;49.796;9.934;2023-06-10T05:26:31;8.50;;;6.33;;
10110;SDS011;5095;49.796;9.934;2023-06-10T05:28:58;7.90;;;5.93;;
10110;SDS011;5095;49.796;9.934;2023-06-10T05:31:24;7.43;;;5.90;;
10110;SDS011;5095;49.796;9.934;2023-06-10T05:33:50;9.10;;;6.00;;
10110;SDS011;5095;49.796;9.934;2023-06-10T05:36:16;8.47;;;6.10;;
10110;SDS011;5095;49.796;9.934;2023-06-10T05:38:42;8.13;;;6.10;;
10110;SDS011;5095;49.796;9.934;2023-06-10T05:41:08;12.10;;;6.57;;
10110;SDS011;5095;49.796;9.934;2023-06-10T05:43:34;13.07;;;6.67;;
10110;SDS011;5095;49.796;9.934;2023-06-10T05:46:00;9.80;;;6.20;;
10110;SDS011;5095;49.796;9.934;2023-06-10T05:48:26;8.67;;;6.07;;
10110;SDS011;5095;49.796;9.934;2023-06-10T05:50:52;8.23;;;6.50;;
10110;SDS011;5095;49.796;9.934;2023-06-10T05:53:18;8.03;;;5.67;;
10110;SDS011;5095;49.796;9.934;2023-06-10T05:55:44;8.10;;;6.10;;
10110;SDS011;5095;49.796;9.934;2023-06-10T05:58:11;7.60;;;5.60;;
10110;SDS011;5095;49.796;9.934;2023-06-10T06:00:40;9.93;;;6.17;;
10110;SDS011;5095;49.796;9.934;2023-06-10T06:03:09;7.67;;;5.83;;
10110;SDS011;5095;49.796;9.934;2023-06-10T06:05:35;9.23;;;5.90;;
10110;SDS011;5095;49.796;9.934;2023-06-10T06:08:06;7.87;;;5.90;;
10110;SDS011;5095;49.796;9.934;2023-06-10T06:10:32;9.10;;;5.80;;
10110;SDS011;5095;49.796;9.934;2023-06-10T06:12:58;7.37;;;5.67;;
10110;SDS011;5095;49.796;9.934;2023-06-10T06:15:24;10.57;;;5.53;;
10110;SDS011;5095;49.796;9.934;2023-06-10T06:17:50;9.20;;;5.50;;
10110;SDS011;5095;49.796;9.934;2023-06-10T06:20:20;8.70;;;5.90;;
10110;SDS011;5095;49.796;9.934;2023-06-10T06:22:46;8.17;;;6.07;;
10110;SDS011;5095;49.796;9.934;2023-06-10T06:25:12;9.20;;;5.47;;
10110;SDS011;5095;49.796;9.934;2023-06-10T06:27:38;7.90;;;5.40;;
10110;SDS011;5095;49.796;9.934;2023-06-10T06:30:04;8.83;;;6.10;;
10110;SDS011;5095;49.796;9.934;2023-06-10T06:32:31;6.90;;;5.50;;
10110;SDS011;5095;49.796;9.934;2023-06-10T06:34:57;10.23;;;5.73;;
10110;SDS011;5095;49.796;9.934;2023-06-10T06:37:24;7.67;;;5.23;;
10110;SDS011;5095;49.796;9.934;2023-06-10T06:39:50;7.23;;;5.63;;
10110;SDS011;5095;49.796;9.934;2023-06-10T06:42:16;6.43;;;5.37;;
10110;SDS011;5095;49.796;9.934;2023-06-10T06:44:42;7.17;;;5.47;;
10110;SDS011;5095;49.796;9.934;2023-06-10T06:47:08;7.43;;;4.40;;
10110;SDS011;5095;49.796;9.934;2023-06-10T06:49:34;5.60;;;4.40;;
10110;SDS011;5095;49.796;9.934;2023-06-10T06:52:01;6.83;;;5.17;;
10110;SDS011;5095;49.796;9.934;2023-06-10T06:54:27;6.40;;;5.20;;
10110;SDS011;5095;49.796;9.934;2023-06-10T06:56:54;7.10;;;4.63;;
10110;SDS011;5095;49.796;9.934;2023-06-10T06:59:20;9.20;;;5.70;;
10110;SDS011;5095;49.796;9.934;2023-06-10T07:01:46;4.87;;;4.37;;
10110;SDS011;5095;49.796;9.934;2023-06-10T07:04:14;7.60;;;4.87;;
10110;SDS011;5095;49.796;9.934;2023-06-10T07:06:40;6.87;;;5.10;;
10110;SDS011;5095;49.796;9.934;2023-06-10T07:09:07;8.57;;;5.83;;
10110;SDS011;5095;49.796;9.934;2023-06-10T07:11:34;8.57;;;5.13;;
10110;SDS011;5095;49.796;9.934;2023-06-10T07:14:00;7.30;;;5.20;;
10110;SDS011;5095;49.796;9.934;2023-06-10T07:16:26;6.07;;;5.27;;
10110;SDS011;5095;49.796;9.934;2023-06-10T07:18:52;6.83;;;5.43;;
10110;SDS011;5095;49.796;9.934;2023-06-10T07:21:18;6.17;;;5.13;;
10110;SDS011;5095;49.796;9.934;2023-06-10T07:23:44;5.40;;;3.43;;
10110;SDS011;5095;49.796;9.934;2023-06-10T07:26:11;7.17;;;5.10;;
10110;SDS011;5095;49.796;9.934;2023-06-10T07:28:38;7.30;;;5.10;;
10110;SDS011;5095;49.796;9.934;2023-06-10T07:31:04;7.57;;;5.67;;
10110;SDS011;5095;49.796;9.934;2023-06-10T07:33:30;7.17;;;4.83;;
10110;SDS011;5095;49.796;9.934;2023-06-10T07:35:56;8.40;;;5.28;;
10110;SDS011;5095;49.796;9.934;2023-06-10T07:38:22;9.90;;;6.45;;
10110;SDS011;5095;49.796;9.934;2023-06-10T07:40:48;8.57;;;5.03;;
10110;SDS011;5095;49.796;9.934;2023-06-10T07:43:14;8.27;;;5.78;;
10110;SDS011;5095;49.796;9.934;2023-06-10T07:45:40;5.72;;;4.60;;
10110;SDS011;5095;49.796;9.934;2023-06-10T07:48:06;8.82;;;5.32;;
10110;SDS011;5095;49.796;9.934;2023-06-10T07:50:33;7.90;;;4.70;;
10110;SDS011;5095;49.796;9.934;2023-06-10T07:52:59;6.30;;;4.80;;
10110;SDS011;5095;49.796;9.934;2023-06-10T07:55:25;6.65;;;4.82;;
10110;SDS011;5095;49.796;9.934;2023-06-10T07:57:51;5.80;;;4.75;;
10110;SDS011;5095;49.796;9.934;2023-06-10T08:00:17;5.85;;;4.85;;
10110;SDS011;5095;49.796;9.934;2023-06-10T08:02:43;6.55;;;4.47;;
10110;SDS011;5095;49.796;9.934;2023-06-10T08:05:10;7.63;;;5.20;;
10110;SDS011;5095;49.796;9.934;2023-06-10T08:07:36;6.35;;;4.32;;
10110;SDS011;5095;49.796;9.934;2023-06-10T08:10:02;5.20;;;3.97;;
10110;SDS011;5095;49.796;9.934;2023-06-10T08:12:29;6.57;;;4.43;;
10110;SDS011;5095;49.796;9.934;2023-06-10T08:14:55;6.40;;;4.40;;
10110;SDS011;5095;49.796;9.934;2023-06-10T08:17:21;4.20;;;3.80;;
10110;SDS011;5095;49.796;9.934;2023-06-10T08:19:48;6.38;;;4.70;;
10110;SDS011;5095;49.796;9.934;2023-06-10T08:22:14;6.85;;;4.15;;
10110;SDS011;5095;49.796;9.934;2023-06-10T08:24:40;6.80;;;4.57;;
10110;SDS011;5095;49.796;9.934;2023-06-10T08:27:06;4.65;;;3.97;;
10110;SDS011;5095;49.796;9.934;2023-06-10T08:29:32;7.45;;;4.00;;
10110;SDS011;5095;49.796;9.934;2023-06-10T08:31:58;6.55;;;4.72;;
10110;SDS011;5095;49.796;9.934;2023-06-10T08:34:24;6.68;;;4.47;;
10110;SDS011;5095;49.796;9.934;2023-06-10T08:36:50;4.43;;;3.90;;
10110;SDS011;5095;49.796;9.934;2023-06-10T08:39:18;4.78;;;3.78;;
10110;SDS011;5095;49.796;9.934;2023-06-10T08:41:50;5.47;;;4.10;;
10110;SDS011;5095;49.796;9.934;2023-06-10T08:44:20;5.95;;;3.97;;
10110;SDS011;5095;49.796;9.934;2023-06-10T08:46:48;5.30;;;3.80;;
10110;SDS011;5095;49.796;9.934;2023-06-10T08:49:17;6.13;;;4.55;;
10110;SDS011;5095;49.796;9.934;2023-06-10T08:51:43;4.05;;;3.65;;
10110;SDS011;5095;49.796;9.934;2023-06-10T08:54:11;7.03;;;5.65;;
10110;SDS011;5095;49.796;9.934;2023-06-10T08:56:41;4.45;;;3.92;;
10110;SDS011;5095;49.796;9.934;2023-06-10T08:59:08;5.03;;;4.03;;
10110;SDS011;5095;49.796;9.934;2023-06-10T09:01:34;6.10;;;3.95;;
10110;SDS011;5095;49.796;9.934;2023-06-10T09:04:01;5.53;;;3.63;;
10110;SDS011;5095;49.796;9.934;2023-06-10T09:06:28;6.40;;;4.38;;
10110;SDS011;5095;49.796;9.934;2023-06-10T09:08:54;5.70;;;3.85;;
10110;SDS011;5095;49.796;9.934;2023-06-10T09:11:20;4.45;;;3.80;;
10110;SDS011;5095;49.796;9.934;2023-06-10T09:13:46;6.22;;;4.55;;
10110;SDS011;5095;49.796;9.934;2023-06-10T09:16:12;4.68;;;3.80;;
10110;SDS011;5095;49.796;9.934;2023-06-10T09:18:39;3.83;;;3.42;;
10110;SDS011;5095;49.796;9.934;2023-06-10T09:21:05;6.20;;;3.53;;
10110;SDS011;5095;49.796;9.934;2023-06-10T09:23:31;5.60;;;3.95;;
10110;SDS011;5095;49.796;9.934;2023-06-10T09:25:57;4.80;;;3.78;;
10110;SDS011;5095;49.796;9.934;2023-06-10T09:28:23;5.03;;;3.78;;
10110;SDS011;5095;49.796;9.934;2023-06-10T09:30:49;4.93;;;3.85;;
10110;SDS011;5095;49.796;9.934;2023-06-10T09:33:15;3.83;;;3.40;;
10110;SDS011;5095;49.796;9.934;2023-06-10T09:35:49;4.20;;;3.63;;
10110;SDS011;5095;49.796;9.934;2023-06-10T09:38:19;5.68;;;3.60;;
10110;SDS011;5095;49.796;9.934;2023-06-10T09:40:49;5.88;;;3.50;;
10110;SDS011;5095;49.796;9.934;2023-06-10T09:43:16;4.25;;;3.85;;
10110;SDS011;5095;49.796;9.934;2023-06-10T09:45:42;5.30;;;3.63;;
10110;SDS011;5095;49.796;9.934;2023-06-10T09:48:08;4.22;;;3.53;;
10110;SDS011;5095;49.796;9.934;2023-06-10T09:50:34;5.18;;;4.13;;
10110;SDS011;5095;49.796;9.934;2023-06-10T09:53:00;5.15;;;3.58;;
10110;SDS011;5095;49.796;9.934;2023-06-10T09:55:30;4.40;;;3.60;;
10110;SDS011;5095;49.796;9.934;2023-06-10T09:57:58;5.03;;;3.53;;
10110;SDS011;5095;49.796;9.934;2023-06-10T10:00:25;5.10;;;3.53;;
10110;SDS011;5095;49.796;9.934;2023-06-10T10:03:00;4.65;;;3.60;;
10110;SDS011;5095;49.796;9.934;2023-06-10T10:05:29;6.03;;;3.40;;
10110;SDS011;5095;49.796;9.934;2023-06-10T10:07:55;4.27;;;3.30;;
10110;SDS011;5095;49.796;9.934;2023-06-10T10:10:21;5.20;;;3.30;;
10110;SDS011;5095;49.796;9.934;2023-06-10T10:12:48;5.07;;;3.30;;
10110;SDS011;5095;49.796;9.934;2023-06-10T10:15:15;3.85;;;3.20;;
10110;SDS011;5095;49.796;9.934;2023-06-10T10:20:27;3.63;;;3.13;;
10110;SDS011;5095;49.796;9.934;2023-06-10T10:22:57;3.75;;;3.15;;
10110;SDS011;5095;49.796;9.934;2023-06-10T10:25:25;3.55;;;3.20;;
10110;SDS011;5095;49.796;9.934;2023-06-10T10:27:59;4.20;;;3.30;;
10110;SDS011;5095;49.796;9.934;2023-06-10T10:30:28;3.45;;;3.15;;
10110;SDS011;5095;49.796;9.934;2023-06-10T10:33:06;5.82;;;3.40;;
10110;SDS011;5095;49.796;9.934;2023-06-10T10:35:35;3.63;;;3.13;;
10110;SDS011;5095;49.796;9.934;2023-06-10T10:38:02;4.73;;;3.20;;
10110;SDS011;5095;49.796;9.934;2023-06-10T10:40:28;4.28;;;3.33;;
10110;SDS011;5095;49.796;9.934;2023-06-10T10:42:55;3.85;;;3.45;;
10110;SDS011;5095;49.796;9.934;2023-06-10T10:45:21;3.97;;;3.30;;
10110;SDS011;5095;49.796;9.934;2023-06-10T10:47:51;3.92;;;3.50;;
10110;SDS011;5095;49.796;9.934;2023-06-10T10:50:18;4.82;;;2.97;;
10110;SDS011;5095;49.796;9.934;2023-06-10T10:55:13;4.50;;;3.35;;
10110;SDS011;5095;49.796;9.934;2023-06-10T10:57:40;3.87;;;3.20;;
10110;SDS011;5095;49.796;9.934;2023-06-10T11:00:06;3.53;;;3.13;;
10110;SDS011;5095;49.796;9.934;2023-06-10T11:04:58;6.70;;;3.17;;
10110;SDS011;5095;49.796;9.934;2023-06-10T11:07:26;4.50;;;3.60;;
10110;SDS011;5095;49.796;9.934;2023-06-10T11:12:24;5.55;;;3.30;;
10110;SDS011;5095;49.796;9.934;2023-06-10T11:14:54;4.53;;;3.33;;
10110;SDS011;5095;49.796;9.934;2023-06-10T11:17:21;4.22;;;3.30;;
10110;SDS011;5095;49.796;9.934;2023-06-10T11:19:48;7.23;;;3.40;;
10110;SDS011;5095;49.796;9.934;2023-06-10T11:22:17;3.92;;;3.22;;
10110;SDS011;5095;49.796;9.934;2023-06-10T11:24:47;3.53;;;3.20;;
10110;SDS011;5095;49.796;9.934;2023-06-10T11:27:14;4.78;;;3.15;;
10110;SDS011;5095;49.796;9.934;2023-06-10T11:32:28;5.80;;;3.40;;
10110;SDS011;5095;49.796;9.934;2023-06-10T11:34:58;5.93;;;3.07;;
10110;SDS011;5095;49.796;9.934;2023-06-10T11:37:24;6.20;;;3.45;;
10110;SDS011;5095;49.796;9.934;2023-06-10T11:39:56;4.00;;;3.50;;
10110;SDS011;5095;49.796;9.934;2023-06-10T11:42:22;3.50;;;3.13;;
10110;SDS011;5095;49.796;9.934;2023-06-10T11:44:51;6.00;;;3.42;;
10110;SDS011;5095;49.796;9.934;2023-06-10T11:47:18;4.22;;;3.20;;
10110;SDS011;5095;49.796;9.934;2023-06-10T11:49:45;4.03;;;3.20;;
10110;SDS011;5095;49.796;9.934;2023-06-10T11:52:11;5.35;;;2.90;;
10110;SDS011;5095;49.796;9.934;2023-06-10T11:54:38;4.03;;;3.13;;
10110;SDS011;5095;49.796;9.934;2023-06-10T11:57:04;5.30;;;3.37;;
10110;SDS011;5095;49.796;9.934;2023-06-10T11:59:33;3.70;;;2.80;;
10110;SDS011;5095;49.796;9.934;2023-06-10T12:01:59;3.67;;;2.90;;
10110;SDS011;5095;49.796;9.934;2023-06-10T12:04:25;4.85;;;3.40;;
10110;SDS011;5095;49.796;9.934;2023-06-10T12:06:52;3.40;;;2.80;;
10110;SDS011;5095;49.796;9.934;2023-06-10T12:11:44;5.80;;;3.30;;
10110;SDS011;5095;49.796;9.934;2023-06-10T12:14:11;3.23;;;2.93;;
10110;SDS011;5095;49.796;9.934;2023-06-10T12:16:37;5.05;;;3.00;;
10110;SDS011;5095;49.796;9.934;2023-06-10T12:19:03;4.60;;;3.05;;
10110;SDS011;5095;49.796;9.934;2023-06-10T12:21:31;3.55;;;3.13;;
10110;SDS011;5095;49.796;9.934;2023-06-10T12:24:04;4.20;;;3.08;;
10110;SDS011;5095;49.796;9.934;2023-06-10T12:26:37;4.40;;;2.80;;
10110;SDS011;5095;49.796;9.934;2023-06-10T12:31:56;4.05;;;3.00;;
10110;SDS011;5095;49.796;9.934;2023-06-10T12:34:32;3.65;;;2.78;;
10110;SDS011;5095;49.796;9.934;2023-06-10T12:36:59;3.65;;;2.78;;
10110;SDS011;5095;49.796;9.934;2023-06-10T12:39:26;3.15;;;2.67;;
10110;SDS011;5095;49.796;9.934;2023-06-10T12:41:52;2.92;;;2.63;;
10110;SDS011;5095;49.796;9.934;2023-06-10T12:44:19;3.50;;;2.90;;
10110;SDS011;5095;49.796;9.934;2023-06-10T12:46:56;4.18;;;2.92;;
10110;SDS011;5095;49.796;9.934;2023-06-10T12:49:22;3.40;;;2.92;;
10110;SDS011;5095;49.796;9.934;2023-06-10T12:51:48;3.28;;;2.80;;
10110;SDS011;5095;49.796;9.934;2023-06-10T12:54:14;3.58;;;3.03;;
10110;SDS011;5095;49.796;9.934;2023-06-10T12:56:40;3.25;;;2.60;;
10110;SDS011;5095;49.796;9.934;2023-06-10T12:59:06;4.70;;;2.92;;
10110;SDS011;5095;49.796;9.934;2023-06-10T13:01:32;3.05;;;2.65;;
10110;SDS011;5095;49.796;9.934;2023-06-10T13:03:58;3.17;;;2.70;;
10110;SDS011;5095;49.796;9.934;2023-06-10T13:06:24;3.13;;;2.83;;
10110;SDS011;5095;49.796;9.934;2023-06-10T13:08:51;3.03;;;2.60;;
10110;SDS011;5095;49.796;9.934;2023-06-10T13:11:17;3.15;;;2.85;;
10110;SDS011;5095;49.796;9.934;2023-06-10T13:13:43;3.72;;;2.83;;
10110;SDS011;5095;49.796;9.934;2023-06-10T13:16:11;3.17;;;2.88;;
10110;SDS011;5095;49.796;9.934;2023-06-10T13:18:37;2.90;;;2.60;;
10110;SDS011;5095;49.796;9.934;2023-06-10T13:21:03;3.13;;;2.83;;
10110;SDS011;5095;49.796;9.934;2023-06-10T13:23:29;6.20;;;3.45;;
10110;SDS011;5095;49.796;9.934;2023-06-10T13:25:56;3.92;;;3.17;;
10110;SDS011;5095;49.796;9.934;2023-06-10T13:28:22;3.30;;;2.75;;
10110;SDS011;5095;49.796;9.934;2023-06-10T13:30:48;3.60;;;2.55;;
10110;SDS011;5095;49.796;9.934;2023-06-10T13:33:15;3.15;;;2.85;;
10110;SDS011;5095;49.796;9.934;2023-06-10T13:35:41;5.13;;;2.80;;
10110;SDS011;5095;49.796;9.934;2023-06-10T13:38:07;3.65;;;2.65;;
10110;SDS011;5095;49.796;9.934;2023-06-10T13:40:33;3.25;;;2.80;;
10110;SDS011;5095;49.796;9.934;2023-06-10T13:42:59;4.97;;;3.25;;
10110;SDS011;5095;49.796;9.934;2023-06-10T13:45:26;4.53;;;2.80;;
10110;SDS011;5095;49.796;9.934;2023-06-10T13:47:53;7.78;;;2.67;;
10110;SDS011;5095;49.796;9.934;2023-06-10T13:50:19;3.75;;;2.85;;
10110;SDS011;5095;49.796;9.934;2023-06-10T13:52:45;4.07;;;2.42;;
10110;SDS011;5095;49.796;9.934;2023-06-10T13:55:11;3.22;;;2.90;;
10110;SDS011;5095;49.796;9.934;2023-06-10T13:57:37;3.50;;;2.85;;
10110;SDS011;5095;49.796;9.934;2023-06-10T14:00:03;4.38;;;2.88;;
10110;SDS011;5095;49.796;9.934;2023-06-10T14:02:29;4.03;;;2.40;;
10110;SDS011;5095;49.796;9.934;2023-06-10T14:04:55;2.95;;;2.63;;
10110;SDS011;5095;49.796;9.934;2023-06-10T14:07:21;3.45;;;2.83;;
10110;SDS011;5095;49.796;9.934;2023-06-10T14:09:47;2.83;;;2.53;;
10110;SDS011;5095;49.796;9.934;2023-06-10T14:12:13;3.13;;;2.50;;
10110;SDS011;5095;49.796;9.934;2023-06-10T14:14:39;4.03;;;2.97;;
10110;SDS011;5095;49.796;9.934;2023-06-10T14:17:06;3.40;;;3.00;;
10110;SDS011;5095;49.796;9.934;2023-06-10T14:19:32;3.17;;;2.78;;
10110;SDS011;5095;49.796;9.934;2023-06-10T14:21:58;2.70;;;2.50;;
10110;SDS011;5095;49.796;9.934;2023-06-10T14:24:24;3.28;;;2.60;;
10110;SDS011;5095;49.796;9.934;2023-06-10T14:26:50;5.05;;;2.85;;
10110;SDS011;5095;49.796;9.934;2023-06-10T14:29:16;3.38;;;2.65;;
10110;SDS011;5095;49.796;9.934;2023-06-10T14:31:44;3.92;;;2.45;;
10110;SDS011;5095;49.796;9.934;2023-06-10T14:34:10;4.80;;;2.13;;
10110;SDS011;5095;49.796;9.934;2023-06-10T14:36:36;2.83;;;2.42;;
10110;SDS011;5095;49.796;9.934;2023-06-10T14:39:02;3.05;;;2.53;;
10110;SDS011;5095;49.796;9.934;2023-06-10T14:41:29;3.72;;;2.65;;
10110;SDS011;5095;49.796;9.934;2023-06-10T14:43:55;2.72;;;2.45;;
10110;SDS011;5095;49.796;9.934;2023-06-10T14:46:21;3.55;;;2.60;;
10110;SDS011;5095;49.796;9.934;2023-06-10T14:48:47;2.83;;;2.47;;
10110;SDS011;5095;49.796;9.934;2023-06-10T14:51:14;3.03;;;2.55;;
10110;SDS011;5095;49.796;9.934;2023-06-10T14:53:40;2.97;;;2.40;;
10110;SDS011;5095;49.796;9.934;2023-06-10T14:56:06;2.90;;;2.63;;
10110;SDS011;5095;49.796;9.934;2023-06-10T14:58:32;2.58;;;2.20;;
10110;SDS011;5095;49.796;9.934;2023-06-10T15:00:58;2.65;;;2.22;;
10110;SDS011;5095;49.796;9.934;2023-06-10T15:03:24;3.17;;;2.50;;
10110;SDS011;5095;49.796;9.934;2023-06-10T15:05:50;2.97;;;2.53;;
10110;SDS011;5095;49.796;9.934;2023-06-10T15:08:16;3.90;;;2.30;;
10110;SDS011;5095;49.796;9.934;2023-06-10T15:10:42;3.58;;;2.50;;
10110;SDS011;5095;49.796;9.934;2023-06-10T15:13:08;3.55;;;2.42;;
10110;SDS011;5095;49.796;9.934;2023-06-10T15:15:34;2.63;;;2.25;;
10110;SDS011;5095;49.796;9.934;2023-06-10T15:18:00;6.40;;;2.60;;
10110;SDS011;5095;49.796;9.934;2023-06-10T15:20:26;3.20;;;2.65;;